sensor_id;sensor_type;location;lat;lon;timestamp;temperature;humidity
6986;DHT22;3533;51.246;6.850;2022-11-21T00:00:30;19.80;42.30
6986;DHT22;3533;51.246;6.850;2022-11-21T00:03:00;19.80;42.30
6986;DHT22;3533;51.246;6.850;2022-11-21T00:05:30;19.80;42.30
6986;DHT22;3533;51.246;6.850;2022-11-21T00:07:57;19.90;42.50
6986;DHT22;3533;51.246;6.850;2022-11-21T00:10:23;19.80;42.30
6986;DHT22;3533;51.246;6.850;2022-11-21T00:12:54;19.80;42.30
6986;DHT22;3533;51.246;6.850;2022-11-21T00:15:20;19.80;42.30
6986;DHT22;3533;51.246;6.850;2022-11-21T00:17:46;19.80;42.40
6986;DHT22;3533;51.246;6.850;2022-11-21T00:20:12;19.80;42.40
6986;DHT22;3533;51.246;6.850;2022-11-21T00:22:37;19.80;42.40
6986;DHT22;3533;51.246;6.850;2022-11-21T00:25:03;19.80;42.30
6986;DHT22;3533;51.246;6.850;2022-11-21T00:27:29;19.80;42.40
6986;DHT22;3533;51.246;6.850;2022-11-21T00:29:54;19.80;42.30
6986;DHT22;3533;51.246;6.850;2022-11-21T00:32:20;19.80;42.30
6986;DHT22;3533;51.246;6.850;2022-11-21T00:34:45;19.80;42.40
6986;DHT22;3533;51.246;6.850;2022-11-21T00:37:11;19.80;42.30
6986;DHT22;3533;51.246;6.850;2022-11-21T00:39:36;19.80;42.40
6986;DHT22;3533;51.246;6.850;2022-11-21T00:42:02;19.80;42.40
6986;DHT22;3533;51.246;6.850;2022-11-21T00:44:27;19.80;42.40
6986;DHT22;3533;51.246;6.850;2022-11-21T00:46:53;19.80;42.50
6986;DHT22;3533;51.246;6.850;2022-11-21T00:49:18;19.80;42.40
6986;DHT22;3533;51.246;6.850;2022-11-21T00:51:44;19.80;42.30
6986;DHT22;3533;51.246;6.850;2022-11-21T00:54:09;19.80;42.30
6986;DHT22;3533;51.246;6.850;2022-11-21T00:56:35;19.80;42.50
6986;DHT22;3533;51.246;6.850;2022-11-21T00:59:01;19.80;42.40
6986;DHT22;3533;51.246;6.850;2022-11-21T01:01:26;19.80;42.40
6986;DHT22;3533;51.246;6.850;2022-11-21T01:03:52;19.80;42.50
6986;DHT22;3533;51.246;6.850;2022-11-21T01:06:17;19.80;42.40
6986;DHT22;3533;51.246;6.850;2022-11-21T01:08:43;19.80;42.50
6986;DHT22;3533;51.246;6.850;2022-11-21T01:11:14;19.80;42.50
6986;DHT22;3533;51.246;6.850;2022-11-21T01:13:40;19.80;42.40
6986;DHT22;3533;51.246;6.850;2022-11-21T01:16:12;19.80;42.30
6986;DHT22;3533;51.246;6.850;2022-11-21T01:18:38;19.80;42.30
6986;DHT22;3533;51.246;6.850;2022-11-21T01:21:07;19.80;42.40
6986;DHT22;3533;51.246;6.850;2022-11-21T01:23:33;19.80;43.10
6986;DHT22;3533;51.246;6.850;2022-11-21T01:26:04;19.80;42.40
6986;DHT22;3533;51.246;6.850;2022-11-21T01:28:30;19.80;42.40
6986;DHT22;3533;51.246;6.850;2022-11-21T01:31:11;19.80;42.30
6986;DHT22;3533;51.246;6.850;2022-11-21T01:33:37;19.80;42.40
6986;DHT22;3533;51.246;6.850;2022-11-21T01:36:16;19.80;42.50
6986;DHT22;3533;51.246;6.850;2022-11-21T01:38:44;19.80;42.30
6986;DHT22;3533;51.246;6.850;2022-11-21T01:41:13;19.80;42.50
6986;DHT22;3533;51.246;6.850;2022-11-21T01:43:38;19.80;42.50
6986;DHT22;3533;51.246;6.850;2022-11-21T01:46:11;19.80;42.50
6986;DHT22;3533;51.246;6.850;2022-11-21T01:51:23;19.80;42.50
6986;DHT22;3533;51.246;6.850;2022-11-21T01:54:15;19.80;42.50
6986;DHT22;3533;51.246;6.850;2022-11-21T01:56:58;19.80;42.50
6986;DHT22;3533;51.246;6.850;2022-11-21T01:59:31;19.80;42.50
6986;DHT22;3533;51.246;6.850;2022-11-21T02:01:59;19.80;42.50
6986;DHT22;3533;51.246;6.850;2022-11-21T02:04:27;19.80;42.50
6986;DHT22;3533;51.246;6.850;2022-11-21T02:06:55;19.80;42.50
6986;DHT22;3533;51.246;6.850;2022-11-21T02:09:22;19.80;42.50
6986;DHT22;3533;51.246;6.850;2022-11-21T02:11:53;19.80;42.50
6986;DHT22;3533;51.246;6.850;2022-11-21T02:14:19;19.80;42.50
6986;DHT22;3533;51.246;6.850;2022-11-21T02:16:45;19.80;42.50
6986;DHT22;3533;51.246;6.850;2022-11-21T02:19:28;19.80;42.50
6986;DHT22;3533;51.246;6.850;2022-11-21T02:22:06;19.80;42.50
6986;DHT22;3533;51.246;6.850;2022-11-21T02:24:43;19.80;42.50
6986;DHT22;3533;51.246;6.850;2022-11-21T02:27:10;19.80;42.50
6986;DHT22;3533;51.246;6.850;2022-11-21T02:29:36;19.80;42.60
6986;DHT22;3533;51.246;6.850;2022-11-21T02:32:03;19.80;42.50
6986;DHT22;3533;51.246;6.850;2022-11-21T02:34:30;19.80;42.50
6986;DHT22;3533;51.246;6.850;2022-11-21T02:36:56;19.80;42.50
6986;DHT22;3533;51.246;6.850;2022-11-21T02:39:40;19.80;42.50
6986;DHT22;3533;51.246;6.850;2022-11-21T02:42:37;19.80;42.50
6986;DHT22;3533;51.246;6.850;2022-11-21T02:47:37;19.80;42.60
6986;DHT22;3533;51.246;6.850;2022-11-21T02:50:41;19.70;42.50
6986;DHT22;3533;51.246;6.850;2022-11-21T02:52:59;19.80;42.60
6986;DHT22;3533;51.246;6.850;2022-11-21T02:55:24;19.80;43.30
6986;DHT22;3533;51.246;6.850;2022-11-21T02:57:50;19.80;42.60
6986;DHT22;3533;51.246;6.850;2022-11-21T03:00:16;19.70;42.50
6986;DHT22;3533;51.246;6.850;2022-11-21T03:02:42;19.70;42.50
6986;DHT22;3533;51.246;6.850;2022-11-21T03:05:10;19.70;42.50
6986;DHT22;3533;51.246;6.850;2022-11-21T03:07:36;19.80;42.60
6986;DHT22;3533;51.246;6.850;2022-11-21T03:10:02;19.80;42.60
6986;DHT22;3533;51.246;6.850;2022-11-21T03:12:27;19.80;42.60
6986;DHT22;3533;51.246;6.850;2022-11-21T03:14:53;19.70;42.50
6986;DHT22;3533;51.246;6.850;2022-11-21T03:17:18;19.80;42.60
6986;DHT22;3533;51.246;6.850;2022-11-21T03:19:44;19.80;42.50
6986;DHT22;3533;51.246;6.850;2022-11-21T03:22:11;19.80;42.50
6986;DHT22;3533;51.246;6.850;2022-11-21T03:24:37;19.80;42.50
6986;DHT22;3533;51.246;6.850;2022-11-21T03:27:02;19.70;42.50
6986;DHT22;3533;51.246;6.850;2022-11-21T03:29:28;19.80;42.60
6986;DHT22;3533;51.246;6.850;2022-11-21T03:31:53;19.80;42.60
6986;DHT22;3533;51.246;6.850;2022-11-21T03:34:19;19.80;42.60
6986;DHT22;3533;51.246;6.850;2022-11-21T03:36:44;19.80;42.50
6986;DHT22;3533;51.246;6.850;2022-11-21T03:39:10;19.80;42.60
6986;DHT22;3533;51.246;6.850;2022-11-21T03:41:35;19.80;42.60
6986;DHT22;3533;51.246;6.850;2022-11-21T03:44:06;19.80;42.60
6986;DHT22;3533;51.246;6.850;2022-11-21T03:46:34;19.80;42.60
6986;DHT22;3533;51.246;6.850;2022-11-21T03:49:00;19.80;42.60
6986;DHT22;3533;51.246;6.850;2022-11-21T03:51:26;19.80;42.60
6986;DHT22;3533;51.246;6.850;2022-11-21T03:53:52;19.80;43.30
6986;DHT22;3533;51.246;6.850;2022-11-21T03:56:18;19.80;42.50
6986;DHT22;3533;51.246;6.850;2022-11-21T03:58:44;19.80;42.50
6986;DHT22;3533;51.246;6.850;2022-11-21T04:01:10;19.80;42.60
6986;DHT22;3533;51.246;6.850;2022-11-21T04:03:38;19.80;42.60
6986;DHT22;3533;51.246;6.850;2022-11-21T04:06:03;19.70;42.50
6986;DHT22;3533;51.246;6.850;2022-11-21T04:08:29;19.70;42.50
6986;DHT22;3533;51.246;6.850;2022-11-21T04:10:54;19.70;42.50
6986;DHT22;3533;51.246;6.850;2022-11-21T04:13:20;19.80;42.60
6986;DHT22;3533;51.246;6.850;2022-11-21T04:15:46;19.70;42.50
6986;DHT22;3533;51.246;6.850;2022-11-21T04:18:12;19.70;42.50
6986;DHT22;3533;51.246;6.850;2022-11-21T04:20:38;19.70;42.50
6986;DHT22;3533;51.246;6.850;2022-11-21T04:23:04;19.70;42.50
6986;DHT22;3533;51.246;6.850;2022-11-21T04:25:31;19.70;42.50
6986;DHT22;3533;51.246;6.850;2022-11-21T04:28:01;19.70;42.50
6986;DHT22;3533;51.246;6.850;2022-11-21T04:30:28;19.70;42.50
6986;DHT22;3533;51.246;6.850;2022-11-21T04:32:54;19.70;42.50
6986;DHT22;3533;51.246;6.850;2022-11-21T04:35:21;19.70;42.50
6986;DHT22;3533;51.246;6.850;2022-11-21T04:37:46;19.70;42.50
6986;DHT22;3533;51.246;6.850;2022-11-21T04:40:13;19.70;42.60
6986;DHT22;3533;51.246;6.850;2022-11-21T04:42:43;19.70;42.50
6986;DHT22;3533;51.246;6.850;2022-11-21T04:45:09;19.70;42.50
6986;DHT22;3533;51.246;6.850;2022-11-21T04:47:39;19.70;42.50
6986;DHT22;3533;51.246;6.850;2022-11-21T04:50:05;19.70;42.50
6986;DHT22;3533;51.246;6.850;2022-11-21T04:52:31;19.70;42.50
6986;DHT22;3533;51.246;6.850;2022-11-21T04:54:57;19.70;42.50
6986;DHT22;3533;51.246;6.850;2022-11-21T04:57:23;19.70;42.50
6986;DHT22;3533;51.246;6.850;2022-11-21T04:59:49;19.70;43.30
6986;DHT22;3533;51.246;6.850;2022-11-21T05:02:14;19.80;42.60
6986;DHT22;3533;51.246;6.850;2022-11-21T05:04:40;19.80;42.60
6986;DHT22;3533;51.246;6.850;2022-11-21T05:07:05;19.80;42.50
6986;DHT22;3533;51.246;6.850;2022-11-21T05:09:31;19.80;42.50
6986;DHT22;3533;51.246;6.850;2022-11-21T05:11:56;19.80;42.40
6986;DHT22;3533;51.246;6.850;2022-11-21T05:14:41;19.80;42.40
6986;DHT22;3533;51.246;6.850;2022-11-21T05:17:06;19.80;42.50
6986;DHT22;3533;51.246;6.850;2022-11-21T05:19:32;19.80;42.40
6986;DHT22;3533;51.246;6.850;2022-11-21T05:21:57;19.80;42.40
6986;DHT22;3533;51.246;6.850;2022-11-21T05:24:23;19.90;42.50
6986;DHT22;3533;51.246;6.850;2022-11-21T05:26:49;19.90;42.50
6986;DHT22;3533;51.246;6.850;2022-11-21T05:29:14;19.90;42.50
6986;DHT22;3533;51.246;6.850;2022-11-21T05:31:40;19.90;42.30
6986;DHT22;3533;51.246;6.850;2022-11-21T05:34:05;19.90;42.30
6986;DHT22;3533;51.246;6.850;2022-11-21T05:36:31;19.90;42.20
6986;DHT22;3533;51.246;6.850;2022-11-21T05:38:56;20.00;42.30
6986;DHT22;3533;51.246;6.850;2022-11-21T05:41:22;20.00;42.20
6986;DHT22;3533;51.246;6.850;2022-11-21T05:43:47;20.00;42.20
6986;DHT22;3533;51.246;6.850;2022-11-21T05:46:24;20.00;42.20
6986;DHT22;3533;51.246;6.850;2022-11-21T05:48:52;20.00;42.10
6986;DHT22;3533;51.246;6.850;2022-11-21T05:51:19;20.00;42.30
6986;DHT22;3533;51.246;6.850;2022-11-21T05:53:45;20.00;42.20
6986;DHT22;3533;51.246;6.850;2022-11-21T05:56:16;20.00;42.10
6986;DHT22;3533;51.246;6.850;2022-11-21T05:58:42;20.00;42.50
6986;DHT22;3533;51.246;6.850;2022-11-21T06:01:09;20.00;42.20
6986;DHT22;3533;51.246;6.850;2022-11-21T06:03:37;20.00;42.20
6986;DHT22;3533;51.246;6.850;2022-11-21T06:06:11;20.00;42.20
6986;DHT22;3533;51.246;6.850;2022-11-21T06:08:42;20.00;42.20
6986;DHT22;3533;51.246;6.850;2022-11-21T06:11:10;20.00;42.20
6986;DHT22;3533;51.246;6.850;2022-11-21T06:13:36;20.00;42.20
6986;DHT22;3533;51.246;6.850;2022-11-21T06:16:13;20.00;42.10
6986;DHT22;3533;51.246;6.850;2022-11-21T06:18:41;20.00;42.20
6986;DHT22;3533;51.246;6.850;2022-11-21T06:21:18;20.00;42.20
6986;DHT22;3533;51.246;6.850;2022-11-21T06:23:45;20.00;42.20
6986;DHT22;3533;51.246;6.850;2022-11-21T06:26:13;20.00;42.10
6986;DHT22;3533;51.246;6.850;2022-11-21T06:28:40;20.00;42.10
6986;DHT22;3533;51.246;6.850;2022-11-21T06:31:18;20.00;42.60
6986;DHT22;3533;51.246;6.850;2022-11-21T06:33:44;20.00;42.10
6986;DHT22;3533;51.246;6.850;2022-11-21T06:36:15;20.00;42.10
6986;DHT22;3533;51.246;6.850;2022-11-21T06:38:41;20.00;42.20
6986;DHT22;3533;51.246;6.850;2022-11-21T06:41:12;20.00;42.10
6986;DHT22;3533;51.246;6.850;2022-11-21T06:43:38;20.00;42.10
6986;DHT22;3533;51.246;6.850;2022-11-21T06:46:04;20.00;42.90
6986;DHT22;3533;51.246;6.850;2022-11-21T06:48:33;20.00;42.20
6986;DHT22;3533;51.246;6.850;2022-11-21T06:51:04;20.00;42.10
6986;DHT22;3533;51.246;6.850;2022-11-21T06:53:30;20.00;42.20
6986;DHT22;3533;51.246;6.850;2022-11-21T06:56:00;20.00;42.10
6986;DHT22;3533;51.246;6.850;2022-11-21T06:58:25;20.00;42.10
6986;DHT22;3533;51.246;6.850;2022-11-21T07:00:51;20.00;42.10
6986;DHT22;3533;51.246;6.850;2022-11-21T07:03:16;20.00;42.10
6986;DHT22;3533;51.246;6.850;2022-11-21T07:05:42;20.00;42.10
6986;DHT22;3533;51.246;6.850;2022-11-21T07:08:08;20.00;42.00
6986;DHT22;3533;51.246;6.850;2022-11-21T07:10:34;20.00;42.10
6986;DHT22;3533;51.246;6.850;2022-11-21T07:12:59;20.10;42.10
6986;DHT22;3533;51.246;6.850;2022-11-21T07:15:45;20.00;42.10
6986;DHT22;3533;51.246;6.850;2022-11-21T07:18:11;20.00;42.10
6986;DHT22;3533;51.246;6.850;2022-11-21T07:20:37;20.00;42.10
6986;DHT22;3533;51.246;6.850;2022-11-21T07:23:02;20.00;42.10
6986;DHT22;3533;51.246;6.850;2022-11-21T07:25:28;20.00;42.10
6986;DHT22;3533;51.246;6.850;2022-11-21T07:27:54;20.00;42.00
6986;DHT22;3533;51.246;6.850;2022-11-21T07:30:22;20.00;42.10
6986;DHT22;3533;51.246;6.850;2022-11-21T07:42:53;20.00;42.10
6986;DHT22;3533;51.246;6.850;2022-11-21T07:45:24;20.00;42.20
6986;DHT22;3533;51.246;6.850;2022-11-21T07:47:59;20.00;42.20
6986;DHT22;3533;51.246;6.850;2022-11-21T07:50:25;20.00;42.20
6986;DHT22;3533;51.246;6.850;2022-11-21T07:52:51;20.00;42.20
6986;DHT22;3533;51.246;6.850;2022-11-21T07:55:20;20.00;42.20
6986;DHT22;3533;51.246;6.850;2022-11-21T07:57:46;20.00;42.20
6986;DHT22;3533;51.246;6.850;2022-11-21T08:00:12;20.00;42.10
6986;DHT22;3533;51.246;6.850;2022-11-21T08:02:37;20.00;42.10
6986;DHT22;3533;51.246;6.850;2022-11-21T08:05:03;20.00;42.20
6986;DHT22;3533;51.246;6.850;2022-11-21T08:07:29;20.00;42.10
6986;DHT22;3533;51.246;6.850;2022-11-21T08:09:54;20.00;42.10
6986;DHT22;3533;51.246;6.850;2022-11-21T08:12:20;20.00;42.10
6986;DHT22;3533;51.246;6.850;2022-11-21T08:14:46;20.00;42.10
6986;DHT22;3533;51.246;6.850;2022-11-21T08:17:11;20.00;42.10
6986;DHT22;3533;51.246;6.850;2022-11-21T08:19:38;20.00;42.10
6986;DHT22;3533;51.246;6.850;2022-11-21T08:22:03;20.00;42.10
6986;DHT22;3533;51.246;6.850;2022-11-21T08:24:29;20.10;42.10
6986;DHT22;3533;51.246;6.850;2022-11-21T08:26:54;20.10;42.10
6986;DHT22;3533;51.246;6.850;2022-11-21T08:29:20;20.10;42.10
6986;DHT22;3533;51.246;6.850;2022-11-21T08:31:46;20.10;42.10
6986;DHT22;3533;51.246;6.850;2022-11-21T08:34:11;20.10;42.10
6986;DHT22;3533;51.246;6.850;2022-11-21T08:36:37;20.10;42.20
6986;DHT22;3533;51.246;6.850;2022-11-21T08:39:03;20.10;42.10
6986;DHT22;3533;51.246;6.850;2022-11-21T08:41:29;20.10;42.10
6986;DHT22;3533;51.246;6.850;2022-11-21T08:44:13;20.10;42.20
6986;DHT22;3533;51.246;6.850;2022-11-21T08:46:39;20.10;42.20
6986;DHT22;3533;51.246;6.850;2022-11-21T08:49:06;20.10;42.10
6986;DHT22;3533;51.246;6.850;2022-11-21T08:51:32;20.10;42.10
6986;DHT22;3533;51.246;6.850;2022-11-21T08:53:58;20.10;42.10
6986;DHT22;3533;51.246;6.850;2022-11-21T08:56:24;20.10;42.20
6986;DHT22;3533;51.246;6.850;2022-11-21T08:58:49;20.10;42.30
6986;DHT22;3533;51.246;6.850;2022-11-21T09:01:15;20.10;42.20
6986;DHT22;3533;51.246;6.850;2022-11-21T09:03:40;20.00;42.10
6986;DHT22;3533;51.246;6.850;2022-11-21T09:06:06;20.00;42.20
6986;DHT22;3533;51.246;6.850;2022-11-21T09:08:31;20.00;42.10
6986;DHT22;3533;51.246;6.850;2022-11-21T09:10:58;20.00;42.20
6986;DHT22;3533;51.246;6.850;2022-11-21T09:13:27;20.10;42.20
6986;DHT22;3533;51.246;6.850;2022-11-21T09:15:52;20.10;42.30
6986;DHT22;3533;51.246;6.850;2022-11-21T09:18:36;20.00;42.20
6986;DHT22;3533;51.246;6.850;2022-11-21T09:21:02;20.00;42.20
6986;DHT22;3533;51.246;6.850;2022-11-21T09:23:27;20.00;42.20
6986;DHT22;3533;51.246;6.850;2022-11-21T09:25:53;20.00;42.20
6986;DHT22;3533;51.246;6.850;2022-11-21T09:28:19;20.00;42.20
6986;DHT22;3533;51.246;6.850;2022-11-21T09:30:44;20.00;42.20
6986;DHT22;3533;51.246;6.850;2022-11-21T09:33:12;20.00;42.20
6986;DHT22;3533;51.246;6.850;2022-11-21T09:35:38;20.00;42.30
6986;DHT22;3533;51.246;6.850;2022-11-21T09:38:04;20.00;43.00
6986;DHT22;3533;51.246;6.850;2022-11-21T09:40:30;20.00;42.20
6986;DHT22;3533;51.246;6.850;2022-11-21T09:43:21;20.00;42.20
6986;DHT22;3533;51.246;6.850;2022-11-21T09:45:53;20.00;42.20
6986;DHT22;3533;51.246;6.850;2022-11-21T09:48:32;20.00;42.30
6986;DHT22;3533;51.246;6.850;2022-11-21T09:51:02;20.00;42.30
6986;DHT22;3533;51.246;6.850;2022-11-21T09:53:33;20.00;42.30
6986;DHT22;3533;51.246;6.850;2022-11-21T09:56:10;20.00;42.30
6986;DHT22;3533;51.246;6.850;2022-11-21T09:58:41;20.00;42.20
6986;DHT22;3533;51.246;6.850;2022-11-21T10:01:15;20.00;42.20
6986;DHT22;3533;51.246;6.850;2022-11-21T10:03:46;20.00;42.30
6986;DHT22;3533;51.246;6.850;2022-11-21T10:06:19;20.00;42.30
6986;DHT22;3533;51.246;6.850;2022-11-21T10:12:27;20.00;42.20
6986;DHT22;3533;51.246;6.850;2022-11-21T10:15:38;20.00;42.30
6986;DHT22;3533;51.246;6.850;2022-11-21T10:21:01;20.00;42.30
6986;DHT22;3533;51.246;6.850;2022-11-21T10:24:22;20.00;42.30
6986;DHT22;3533;51.246;6.850;2022-11-21T10:29:09;20.00;42.30
6986;DHT22;3533;51.246;6.850;2022-11-21T10:31:37;20.00;42.30
6986;DHT22;3533;51.246;6.850;2022-11-21T10:34:18;20.00;42.30
6986;DHT22;3533;51.246;6.850;2022-11-21T10:36:49;20.00;42.30
6986;DHT22;3533;51.246;6.850;2022-11-21T10:39:24;20.00;42.30
6986;DHT22;3533;51.246;6.850;2022-11-21T10:41:59;20.00;42.30
6986;DHT22;3533;51.246;6.850;2022-11-21T10:44:27;20.00;42.30
6986;DHT22;3533;51.246;6.850;2022-11-21T10:47:18;20.00;42.30
6986;DHT22;3533;51.246;6.850;2022-11-21T10:52:39;20.00;42.40
6986;DHT22;3533;51.246;6.850;2022-11-21T10:55:09;20.00;42.30
6986;DHT22;3533;51.246;6.850;2022-11-21T10:57:49;20.00;42.30
6986;DHT22;3533;51.246;6.850;2022-11-21T11:00:24;20.00;42.40
6986;DHT22;3533;51.246;6.850;2022-11-21T11:05:27;20.00;42.40
6986;DHT22;3533;51.246;6.850;2022-11-21T11:08:07;20.00;42.30
6986;DHT22;3533;51.246;6.850;2022-11-21T11:10:42;20.00;42.30
6986;DHT22;3533;51.246;6.850;2022-11-21T11:18:39;20.00;42.30
6986;DHT22;3533;51.246;6.850;2022-11-21T11:21:13;20.00;42.30
6986;DHT22;3533;51.246;6.850;2022-11-21T11:23:39;20.00;42.30
6986;DHT22;3533;51.246;6.850;2022-11-21T11:28:46;20.00;42.30
6986;DHT22;3533;51.246;6.850;2022-11-21T11:31:11;20.00;42.30
6986;DHT22;3533;51.246;6.850;2022-11-21T11:33:51;20.00;42.30
6986;DHT22;3533;51.246;6.850;2022-11-21T11:36:30;20.00;42.30
6986;DHT22;3533;51.246;6.850;2022-11-21T11:38:59;20.00;42.30
6986;DHT22;3533;51.246;6.850;2022-11-21T11:42:00;20.00;42.30
6986;DHT22;3533;51.246;6.850;2022-11-21T11:47:57;20.00;42.30
6986;DHT22;3533;51.246;6.850;2022-11-21T11:50:48;20.00;42.30
6986;DHT22;3533;51.246;6.850;2022-11-21T11:58:39;20.00;42.30
6986;DHT22;3533;51.246;6.850;2022-11-21T12:01:10;20.00;42.30
6986;DHT22;3533;51.246;6.850;2022-11-21T12:03:42;20.00;42.30
6986;DHT22;3533;51.246;6.850;2022-11-21T12:06:16;20.00;42.30
6986;DHT22;3533;51.246;6.850;2022-11-21T12:08:53;20.10;42.30
6986;DHT22;3533;51.246;6.850;2022-11-21T12:11:54;20.00;42.30
6986;DHT22;3533;51.246;6.850;2022-11-21T12:20:29;20.00;42.30
6986;DHT22;3533;51.246;6.850;2022-11-21T12:22:58;20.00;42.30
6986;DHT22;3533;51.246;6.850;2022-11-21T12:25:39;20.00;42.30
6986;DHT22;3533;51.246;6.850;2022-11-21T12:28:23;20.10;42.30
6986;DHT22;3533;51.246;6.850;2022-11-21T12:31:11;20.10;42.30
6986;DHT22;3533;51.246;6.850;2022-11-21T12:33:54;20.10;42.20
6986;DHT22;3533;51.246;6.850;2022-11-21T12:36:47;20.10;42.20
6986;DHT22;3533;51.246;6.850;2022-11-21T12:39:53;20.10;42.20
6986;DHT22;3533;51.246;6.850;2022-11-21T12:42:41;20.10;42.30
6986;DHT22;3533;51.246;6.850;2022-11-21T12:45:31;20.10;42.20
6986;DHT22;3533;51.246;6.850;2022-11-21T12:48:11;20.10;42.20
6986;DHT22;3533;51.246;6.850;2022-11-21T12:57:14;20.10;42.20
6986;DHT22;3533;51.246;6.850;2022-11-21T13:00:08;20.10;42.20
6986;DHT22;3533;51.246;6.850;2022-11-21T13:05:36;20.10;42.20
6986;DHT22;3533;51.246;6.850;2022-11-21T13:08:09;20.10;42.30
6986;DHT22;3533;51.246;6.850;2022-11-21T13:10:38;20.10;42.30
6986;DHT22;3533;51.246;6.850;2022-11-21T13:13:25;20.10;42.20
6986;DHT22;3533;51.246;6.850;2022-11-21T13:16:07;20.10;42.30
6986;DHT22;3533;51.246;6.850;2022-11-21T13:18:41;20.10;42.20
6986;DHT22;3533;51.246;6.850;2022-11-21T13:21:40;20.10;42.20
6986;DHT22;3533;51.246;6.850;2022-11-21T13:24:07;20.10;42.20
6986;DHT22;3533;51.246;6.850;2022-11-21T13:29:12;20.10;42.20
6986;DHT22;3533;51.246;6.850;2022-11-21T13:31:39;20.10;42.20
6986;DHT22;3533;51.246;6.850;2022-11-21T13:36:59;20.10;42.20
6986;DHT22;3533;51.246;6.850;2022-11-21T13:39:27;20.10;42.20
6986;DHT22;3533;51.246;6.850;2022-11-21T13:42:00;20.10;42.10
6986;DHT22;3533;51.246;6.850;2022-11-21T13:44:45;20.10;42.10
6986;DHT22;3533;51.246;6.850;2022-11-21T13:47:30;20.10;42.20
6986;DHT22;3533;51.246;6.850;2022-11-21T13:53:33;20.10;42.10
6986;DHT22;3533;51.246;6.850;2022-11-21T13:55:56;20.10;42.10
6986;DHT22;3533;51.246;6.850;2022-11-21T13:58:40;20.10;42.20
6986;DHT22;3533;51.246;6.850;2022-11-21T14:07:30;20.10;42.10
6986;DHT22;3533;51.246;6.850;2022-11-21T14:09:59;20.10;42.10
6986;DHT22;3533;51.246;6.850;2022-11-21T14:12:32;20.10;42.20
6986;DHT22;3533;51.246;6.850;2022-11-21T14:17:46;20.10;42.10
6986;DHT22;3533;51.246;6.850;2022-11-21T14:23:22;20.10;42.90
6986;DHT22;3533;51.246;6.850;2022-11-21T14:25:53;20.10;42.20
6986;DHT22;3533;51.246;6.850;2022-11-21T14:28:26;20.10;42.20
6986;DHT22;3533;51.246;6.850;2022-11-21T14:33:30;20.10;42.10
6986;DHT22;3533;51.246;6.850;2022-11-21T14:36:02;20.10;42.20
6986;DHT22;3533;51.246;6.850;2022-11-21T14:38:33;20.10;42.20
6986;DHT22;3533;51.246;6.850;2022-11-21T14:44:01;20.10;42.20
6986;DHT22;3533;51.246;6.850;2022-11-21T14:46:29;20.10;42.20
6986;DHT22;3533;51.246;6.850;2022-11-21T14:48:55;20.10;42.20
6986;DHT22;3533;51.246;6.850;2022-11-21T14:51:25;20.10;42.20
6986;DHT22;3533;51.246;6.850;2022-11-21T14:53:52;20.10;42.20
6986;DHT22;3533;51.246;6.850;2022-11-21T14:56:23;20.10;42.20
6986;DHT22;3533;51.246;6.850;2022-11-21T14:58:50;20.10;42.10
6986;DHT22;3533;51.246;6.850;2022-11-21T15:01:22;20.10;42.20
6986;DHT22;3533;51.246;6.850;2022-11-21T15:04:00;20.10;42.20
6986;DHT22;3533;51.246;6.850;2022-11-21T15:06:27;20.10;42.10
6986;DHT22;3533;51.246;6.850;2022-11-21T15:08:54;20.10;42.10
6986;DHT22;3533;51.246;6.850;2022-11-21T15:11:29;20.10;42.20
6986;DHT22;3533;51.246;6.850;2022-11-21T15:14:01;20.10;42.10
6986;DHT22;3533;51.246;6.850;2022-11-21T15:16:30;20.10;42.10
6986;DHT22;3533;51.246;6.850;2022-11-21T15:18:56;20.10;42.20
6986;DHT22;3533;51.246;6.850;2022-11-21T15:21:21;20.10;43.00
6986;DHT22;3533;51.246;6.850;2022-11-21T15:23:47;20.10;42.20
6986;DHT22;3533;51.246;6.850;2022-11-21T15:26:32;20.10;42.20
6986;DHT22;3533;51.246;6.850;2022-11-21T15:29:00;20.10;42.20
6986;DHT22;3533;51.246;6.850;2022-11-21T15:31:26;20.10;42.20
6986;DHT22;3533;51.246;6.850;2022-11-21T15:34:00;20.10;42.20
6986;DHT22;3533;51.246;6.850;2022-11-21T15:36:26;20.10;42.20
6986;DHT22;3533;51.246;6.850;2022-11-21T15:46:33;20.10;42.20
6986;DHT22;3533;51.246;6.850;2022-11-21T15:49:00;20.10;41.70
6986;DHT22;3533;51.246;6.850;2022-11-21T15:51:35;20.10;42.20
6986;DHT22;3533;51.246;6.850;2022-11-21T15:54:01;20.10;42.20
6986;DHT22;3533;51.246;6.850;2022-11-21T15:56:27;20.10;42.20
6986;DHT22;3533;51.246;6.850;2022-11-21T15:58:52;20.10;42.20
6986;DHT22;3533;51.246;6.850;2022-11-21T16:01:25;20.10;42.20
6986;DHT22;3533;51.246;6.850;2022-11-21T16:03:58;20.10;42.20
6986;DHT22;3533;51.246;6.850;2022-11-21T16:06:24;20.10;42.10
6986;DHT22;3533;51.246;6.850;2022-11-21T16:08:50;20.10;42.10
6986;DHT22;3533;51.246;6.850;2022-11-21T16:14:01;20.10;42.10
6986;DHT22;3533;51.246;6.850;2022-11-21T16:16:29;20.10;42.10
6986;DHT22;3533;51.246;6.850;2022-11-21T16:18:56;20.10;42.10
6986;DHT22;3533;51.246;6.850;2022-11-21T16:21:22;20.10;42.10
6986;DHT22;3533;51.246;6.850;2022-11-21T16:23:48;20.10;42.10
6986;DHT22;3533;51.246;6.850;2022-11-21T16:26:14;20.10;42.10
6986;DHT22;3533;51.246;6.850;2022-11-21T16:28:40;20.10;42.10
6986;DHT22;3533;51.246;6.850;2022-11-21T16:31:06;20.10;42.10
6986;DHT22;3533;51.246;6.850;2022-11-21T16:33:32;20.10;42.10
6986;DHT22;3533;51.246;6.850;2022-11-21T16:35:58;20.10;42.10
6986;DHT22;3533;51.246;6.850;2022-11-21T16:38:25;20.10;42.10
6986;DHT22;3533;51.246;6.850;2022-11-21T16:40:53;20.20;42.10
6986;DHT22;3533;51.246;6.850;2022-11-21T16:43:19;20.10;42.10
6986;DHT22;3533;51.246;6.850;2022-11-21T16:45:44;20.10;42.10
6986;DHT22;3533;51.246;6.850;2022-11-21T16:48:10;20.10;42.10
6986;DHT22;3533;51.246;6.850;2022-11-21T16:50:35;20.10;42.00
6986;DHT22;3533;51.246;6.850;2022-11-21T16:53:00;20.20;42.10
6986;DHT22;3533;51.246;6.850;2022-11-21T16:55:26;20.20;42.10
6986;DHT22;3533;51.246;6.850;2022-11-21T16:57:52;20.20;42.10
6986;DHT22;3533;51.246;6.850;2022-11-21T17:00:19;20.20;42.10
6986;DHT22;3533;51.246;6.850;2022-11-21T17:02:44;20.20;42.10
6986;DHT22;3533;51.246;6.850;2022-11-21T17:05:10;20.20;42.20
6986;DHT22;3533;51.246;6.850;2022-11-21T17:07:35;20.20;42.00
6986;DHT22;3533;51.246;6.850;2022-11-21T17:10:01;20.20;42.10
6986;DHT22;3533;51.246;6.850;2022-11-21T17:12:27;20.20;42.10
6986;DHT22;3533;51.246;6.850;2022-11-21T17:14:52;20.20;42.10
6986;DHT22;3533;51.246;6.850;2022-11-21T17:17:18;20.20;42.10
6986;DHT22;3533;51.246;6.850;2022-11-21T17:19:43;20.20;42.00
6986;DHT22;3533;51.246;6.850;2022-11-21T17:22:09;20.20;42.10
6986;DHT22;3533;51.246;6.850;2022-11-21T17:24:34;20.20;42.00
6986;DHT22;3533;51.246;6.850;2022-11-21T17:27:00;20.20;42.10
6986;DHT22;3533;51.246;6.850;2022-11-21T17:29:28;20.20;42.00
6986;DHT22;3533;51.246;6.850;2022-11-21T17:31:54;20.20;42.00
6986;DHT22;3533;51.246;6.850;2022-11-21T17:34:19;20.20;41.90
6986;DHT22;3533;51.246;6.850;2022-11-21T17:36:45;20.20;41.90
6986;DHT22;3533;51.246;6.850;2022-11-21T17:39:10;20.20;41.90
6986;DHT22;3533;51.246;6.850;2022-11-21T17:41:37;20.20;41.90
6986;DHT22;3533;51.246;6.850;2022-11-21T17:44:04;20.20;41.90
6986;DHT22;3533;51.246;6.850;2022-11-21T17:46:30;20.20;41.90
6986;DHT22;3533;51.246;6.850;2022-11-21T17:48:57;20.20;42.00
6986;DHT22;3533;51.246;6.850;2022-11-21T17:51:31;20.30;42.00
6986;DHT22;3533;51.246;6.850;2022-11-21T17:53:57;20.20;41.90
6986;DHT22;3533;51.246;6.850;2022-11-21T17:56:26;20.20;41.90